Time;durP1;ratioP1;P1;durP2;ratioP2;P2;SDS_P1;SDS_P2;PMS_P1;PMS_P2;Temp;Humidity;BMP_temperature;BMP_pressure;BME280_temperature;BME280_humidity;BME280_pressure;Samples;Min_cycle;Max_cycle;Signal;HPM_P1;HPM_P2
2022/11/29 00:01:30;;;;;;;93.35;33.88;;;11.00;94.60;;;;;;5043550;28;20025;-76
2022/11/29 00:03:56;;;;;;;105.20;39.53;;;10.90;94.60;;;;;;5046198;28;20120;-75
2022/11/29 00:06:26;;;;;;;108.07;39.95;;;10.90;94.60;;;;;;5029105;28;20120;-76
2022/11/29 00:08:53;;;;;;;115.45;42.47;;;10.90;94.60;;;;;;5028102;28;20032;-75
2022/11/29 00:14:12;;;;;;;104.55;37.25;;;10.90;94.70;;;;;;5019515;28;20151;-75
2022/11/29 00:16:41;;;;;;;101.85;38.70;;;10.90;94.70;;;;;;5036198;28;20028;-75
2022/11/29 00:19:08;;;;;;;114.00;40.10;;;10.90;94.70;;;;;;5022876;28;20817;-76
2022/11/29 00:21:34;;;;;;;106.00;36.60;;;10.90;94.70;;;;;;5039754;28;20029;-75
2022/11/29 00:23:59;;;;;;;103.43;38.55;;;10.90;94.70;;;;;;5047308;28;20740;-76
2022/11/29 00:26:25;;;;;;;124.35;44.42;;;10.90;94.60;;;;;;5041712;28;20017;-75
2022/11/29 00:28:51;;;;;;;126.32;42.80;;;11.00;94.60;;;;;;5048063;28;20479;-76
2022/11/29 00:31:25;;;;;;;121.78;42.50;;;10.90;94.70;;;;;;5042513;28;20021;-75
2022/11/29 00:33:51;;;;;;;120.55;42.67;;;10.90;94.70;;;;;;5048207;28;20032;-76
2022/11/29 00:36:17;;;;;;;114.47;40.97;;;10.80;94.70;;;;;;5045073;28;20024;-76
2022/11/29 00:38:43;;;;;;;119.50;38.15;;;10.80;94.80;;;;;;5049633;28;20078;-74
2022/11/29 00:41:09;;;;;;;120.40;42.22;;;10.80;94.90;;;;;;5039930;28;20110;-75
2022/11/29 00:43:35;;;;;;;103.50;37.42;;;10.70;95.00;;;;;;5048638;28;20452;-74
2022/11/29 00:46:01;;;;;;;120.00;42.10;;;10.70;95.00;;;;;;5044548;28;20025;-75
2022/11/29 00:48:28;;;;;;;112.60;41.58;;;10.70;95.00;;;;;;5049844;28;20032;-74
2022/11/29 00:50:53;;;;;;;117.18;40.40;;;10.80;95.00;;;;;;5045705;28;20100;-75
2022/11/29 00:53:19;;;;;;;129.15;46.53;;;10.80;95.00;;;;;;5045253;28;20144;-74
2022/11/29 00:55:47;;;;;;;140.93;45.05;;;10.80;95.00;;;;;;5019934;28;20021;-75
2022/11/29 00:58:13;;;;;;;130.32;42.72;;;10.80;95.10;;;;;;5031343;28;20025;-76
2022/11/29 01:00:39;;;;;;;110.38;39.15;;;10.80;95.00;;;;;;5021869;28;20021;-75
2022/11/29 01:03:04;;;;;;;122.57;43.22;;;10.80;95.00;;;;;;5034976;28;20029;-76
2022/11/29 01:05:31;;;;;;;125.35;43.88;;;10.90;94.90;;;;;;5037198;28;20025;-75
2022/11/29 01:07:57;;;;;;;120.03;42.95;;;10.90;94.90;;;;;;5035769;28;20025;-75
2022/11/29 01:10:23;;;;;;;118.03;40.70;;;11.00;94.90;;;;;;5048223;28;20103;-76
2022/11/29 01:12:49;;;;;;;121.05;42.22;;;11.00;94.90;;;;;;5042716;28;20021;-75
2022/11/29 01:15:15;;;;;;;105.95;39.45;;;11.10;94.80;;;;;;5039399;28;20029;-75
2022/11/29 01:17:41;;;;;;;124.95;43.75;;;11.10;94.70;;;;;;5035755;28;20067;-76
2022/11/29 01:20:08;;;;;;;126.18;45.55;;;11.10;94.60;;;;;;5039706;28;20029;-76
2022/11/29 01:22:35;;;;;;;126.40;42.83;;;11.10;94.60;;;;;;5036168;28;20075;-75
2022/11/29 01:25:03;;;;;;;111.70;37.72;;;11.10;94.50;;;;;;5038921;28;20424;-75
2022/11/29 01:27:29;;;;;;;137.52;46.22;;;11.10;94.50;;;;;;5044216;28;20021;-75
2022/11/29 01:29:54;;;;;;;123.88;42.25;;;11.10;94.80;;;;;;5037818;28;20032;-74
2022/11/29 01:32:20;;;;;;;102.97;37.28;;;11.10;94.50;;;;;;5039863;28;20021;-74
2022/11/29 01:34:46;;;;;;;123.07;41.63;;;11.10;94.50;;;;;;5043672;28;20071;-75
2022/11/29 01:37:11;;;;;;;124.47;44.38;;;11.10;94.50;;;;;;5043519;28;20031;-75
2022/11/29 01:39:37;;;;;;;143.73;46.53;;;11.00;94.50;;;;;;5036523;28;20518;-75
2022/11/29 01:42:03;;;;;;;133.45;45.20;;;11.00;94.50;;;;;;5040440;28;20067;-75
2022/11/29 01:44:29;;;;;;;127.70;44.17;;;11.00;94.50;;;;;;5047468;28;20036;-76
2022/11/29 01:46:55;;;;;;;129.55;41.75;;;11.10;94.50;;;;;;5045653;28;20045;-74
2022/11/29 01:49:29;;;;;;;125.43;44.67;;;11.10;94.50;;;;;;5034817;28;20028;-74
2022/11/29 01:51:59;;;;;;;118.25;39.42;;;11.10;94.50;;;;;;5033835;28;20076;-75
2022/11/29 01:54:27;;;;;;;117.78;41.63;;;11.10;94.50;;;;;;5044500;28;20033;-75
2022/11/29 01:56:52;;;;;;;117.15;41.38;;;11.10;94.50;;;;;;5019655;28;20360;-75
2022/11/29 01:59:22;;;;;;;129.35;42.25;;;11.10;94.50;;;;;;5046956;28;20028;-75
2022/11/29 02:01:47;;;;;;;138.53;45.80;;;11.10;94.50;;;;;;5039312;28;20104;-75
2022/11/29 02:04:15;;;;;;;133.80;46.08;;;11.10;94.50;;;;;;5050421;28;20116;-75
2022/11/29 02:06:40;;;;;;;126.43;42.92;;;11.10;94.50;;;;;;5039001;28;20017;-75
2022/11/29 02:09:19;;;;;;;127.28;41.03;;;11.10;94.50;;;;;;5049715;28;20110;-76
2022/11/29 02:12:05;;;;;;;126.78;41.88;;;11.10;94.50;;;;;;5041522;28;20049;-75
2022/11/29 02:14:36;;;;;;;117.68;40.00;;;11.10;94.50;;;;;;5039100;28;20056;-74
2022/11/29 02:17:40;;;;;;;134.80;45.25;;;11.10;94.70;;;;;;5043522;28;20028;-75
2022/11/29 02:20:30;;;;;;;126.30;41.33;;;11.10;94.50;;;;;;5043050;28;20017;-75
2022/11/29 02:23:11;;;;;;;146.20;48.22;;;11.10;94.50;;;;;;5038171;28;20025;-75
2022/11/29 02:26:18;;;;;;;120.93;39.22;;;11.10;94.50;;;;;;5041165;28;20033;-76
2022/11/29 02:29:05;;;;;;;113.43;38.33;;;11.10;94.50;;;;;;5046410;28;20521;-74
2022/11/29 02:31:43;;;;;;;141.18;42.95;;;11.10;94.50;;;;;;5044772;28;20562;-75
2022/11/29 02:34:42;;;;;;;133.93;43.75;;;11.00;94.50;;;;;;5030408;28;20068;-76
2022/11/29 02:37:13;;;;;;;132.10;43.90;;;11.00;94.60;;;;;;5037378;28;20026;-76
2022/11/29 02:39:44;;;;;;;105.75;38.75;;;11.00;94.60;;;;;;5044431;28;20152;-75
2022/11/29 02:42:25;;;;;;;127.65;43.97;;;10.90;94.70;;;;;;5049781;28;20108;-75
2022/11/29 02:45:10;;;;;;;129.68;44.20;;;10.80;94.80;;;;;;5040691;28;20399;-75
2022/11/29 02:48:12;;;;;;;125.38;42.50;;;10.80;94.90;;;;;;5041192;28;20553;-76
2022/11/29 02:50:52;;;;;;;118.95;42.90;;;10.80;95.00;;;;;;5042239;28;20096;-76
2022/11/29 02:53:23;;;;;;;128.68;42.85;;;10.80;94.90;;;;;;5051701;28;20093;-76
2022/11/29 02:56:19;;;;;;;150.88;45.47;;;10.90;94.90;;;;;;5048113;28;20028;-76
2022/11/29 02:59:15;;;;;;;128.20;42.53;;;10.90;94.90;;;;;;5037584;28;20027;-75
2022/11/29 03:01:52;;;;;;;169.43;47.80;;;10.90;94.80;;;;;;5034185;28;20054;-75
2022/11/29 03:04:32;;;;;;;129.85;43.22;;;10.90;94.90;;;;;;5040396;28;20117;-75
2022/11/29 03:07:09;;;;;;;124.80;45.40;;;11.00;94.80;;;;;;5048060;28;20479;-74
2022/11/29 03:09:56;;;;;;;136.65;45.83;;;11.00;94.80;;;;;;5037509;28;20033;-74
2022/11/29 03:12:44;;;;;;;136.48;44.03;;;11.00;94.90;;;;;;5048434;28;20056;-74
2022/11/29 03:15:28;;;;;;;138.27;49.20;;;11.00;94.90;;;;;;5038906;28;20119;-75
2022/11/29 03:18:00;;;;;;;149.50;47.38;;;11.00;94.80;;;;;;5042730;28;20025;-75
2022/11/29 03:21:02;;;;;;;139.45;43.70;;;11.00;94.80;;;;;;5047501;28;20017;-74
2022/11/29 03:23:48;;;;;;;130.13;44.83;;;11.00;95.10;;;;;;5036026;28;20156;-74
2022/11/29 03:26:19;;;;;;;127.78;46.10;;;11.00;94.80;;;;;;5033996;28;20072;-76
2022/11/29 03:29:05;;;;;;;177.63;51.35;;;11.00;94.80;;;;;;5044682;28;20037;-76
2022/11/29 03:31:37;;;;;;;138.02;45.95;;;11.00;95.10;;;;;;5040418;28;20032;-75
2022/11/29 03:34:29;;;;;;;113.82;41.10;;;11.00;94.70;;;;;;5044606;28;20029;-75
2022/11/29 03:37:02;;;;;;;142.35;46.13;;;11.00;94.80;;;;;;5039014;28;20032;-76
2022/11/29 03:39:48;;;;;;;146.02;48.65;;;10.90;94.80;;;;;;5040735;28;20056;-74
2022/11/29 03:42:19;;;;;;;134.30;44.47;;;10.80;94.90;;;;;;5045977;28;20040;-74
2022/11/29 03:45:11;;;;;;;139.95;46.03;;;10.80;95.00;;;;;;5037585;28;20438;-74
2022/11/29 03:48:10;;;;;;;147.98;46.83;;;10.80;95.10;;;;;;5042755;28;20029;-75
2022/11/29 03:50:53;;;;;;;142.57;45.05;;;10.80;95.10;;;;;;5014639;28;20399;-73
2022/11/29 03:53:32;;;;;;;134.32;44.38;;;10.80;95.10;;;;;;5048257;28;20021;-75
2022/11/29 03:56:02;;;;;;;118.97;41.97;;;10.80;95.20;;;;;;5050620;28;20028;-74
2022/11/29 03:58:39;;;;;;;;;;;10.80;95.10;;;;;;5034801;28;20791;-73
2022/11/29 04:01:30;;;;;;;127.55;43.60;;;10.90;95.10;;;;;;5044008;28;19908;-75
2022/11/29 04:03:56;;;;;;;168.73;49.08;;;10.90;95.00;;;;;;5034102;28;20508;-75
2022/11/29 04:07:03;;;;;;;126.68;43.63;;;10.90;95.00;;;;;;5045113;28;20025;-76
2022/11/29 04:09:40;;;;;;;151.05;48.35;;;10.90;95.00;;;;;;5004216;28;20488;-75
2022/11/29 04:12:31;;;;;;;125.57;41.72;;;10.90;94.90;;;;;;5042869;28;20116;-75
2022/11/29 04:15:02;;;;;;;147.98;47.28;;;10.90;95.00;;;;;;5043209;28;20032;-75
2022/11/29 04:18:05;;;;;;;124.38;42.67;;;10.90;94.90;;;;;;5025606;28;20059;-74
2022/11/29 04:21:05;;;;;;;126.55;43.90;;;10.90;94.90;;;;;;5015562;28;20021;-75
2022/11/29 04:23:44;;;;;;;124.00;40.55;;;10.90;94.90;;;;;;5033377;28;20026;-75
2022/11/29 04:26:18;;;;;;;126.03;39.30;;;10.90;94.90;;;;;;5049622;28;20033;-76
2022/11/29 04:29:05;;;;;;;106.25;37.17;;;10.90;94.80;;;;;;5039441;28;20052;-75
2022/11/29 04:31:46;;;;;;;126.13;42.03;;;10.90;94.80;;;;;;5040396;28;20025;-75
2022/11/29 04:34:15;;;;;;;80.03;28.30;;;10.90;94.80;;;;;;5036420;28;20470;-75
2022/11/29 04:36:52;;;;;;;171.15;43.08;;;10.90;94.70;;;;;;5024589;28;20024;-74
2022/11/29 04:39:46;;;;;;;145.40;43.45;;;10.80;94.70;;;;;;5041581;28;20029;-75
2022/11/29 04:42:37;;;;;;;116.93;37.92;;;10.90;94.90;;;;;;5046948;28;20025;-75
2022/11/29 04:45:46;;;;;;;130.27;40.33;;;10.80;94.80;;;;;;5036184;28;20523;-75
2022/11/29 04:48:49;;;;;;;150.73;41.97;;;10.90;94.80;;;;;;5039246;28;20020;-75
2022/11/29 04:51:45;;;;;;;140.27;39.83;;;10.90;94.70;;;;;;5043144;28;20067;-75
2022/11/29 04:54:25;;;;;;;186.68;48.40;;;10.90;94.70;;;;;;5030551;28;20018;-75
2022/11/29 04:57:32;;;;;;;144.23;43.93;;;10.90;94.60;;;;;;5042992;28;20033;-75
2022/11/29 05:00:16;;;;;;;147.82;45.65;;;11.00;94.60;;;;;;4975204;28;20281;-76
2022/11/29 05:02:46;;;;;;;133.07;40.92;;;10.90;94.60;;;;;;5043409;28;20044;-75
2022/11/29 05:05:39;;;;;;;146.02;43.78;;;10.90;94.60;;;;;;5036376;28;20069;-75
2022/11/29 05:08:16;;;;;;;146.73;42.78;;;10.90;94.70;;;;;;5057596;28;20041;-75
2022/11/29 05:11:00;;;;;;;157.68;46.25;;;10.90;94.70;;;;;;5045883;28;20055;-76
2022/11/29 05:13:55;;;;;;;127.38;42.03;;;11.00;94.70;;;;;;5039137;28;20029;-75
2022/11/29 05:17:09;;;;;;;148.82;44.13;;;11.00;94.60;;;;;;5011331;28;20033;-76
2022/11/29 05:19:47;;;;;;;151.27;45.30;;;11.00;94.60;;;;;;4981671;28;20034;-75
2022/11/29 05:22:27;;;;;;;157.10;42.33;;;11.00;94.60;;;;;;5030529;28;20090;-75
2022/11/29 05:25:15;;;;;;;144.85;43.50;;;11.00;94.60;;;;;;5045522;28;20067;-75
2022/11/29 05:28:02;;;;;;;178.05;43.90;;;11.00;94.50;;;;;;5042012;28;20159;-75
2022/11/29 05:30:39;;;;;;;177.88;39.10;;;11.00;94.50;;;;;;5036770;28;20029;-75
2022/11/29 05:33:39;;;;;;;150.50;41.00;;;11.10;94.50;;;;;;5036309;28;20052;-76
2022/11/29 05:36:32;;;;;;;146.32;41.22;;;11.00;94.50;;;;;;5042108;28;20029;-75
2022/11/29 05:39:10;;;;;;;137.93;41.65;;;11.00;94.50;;;;;;5046325;28;20083;-75
2022/11/29 05:41:45;;;;;;;134.45;39.95;;;11.00;94.50;;;;;;5034564;28;20032;-75
2022/11/29 05:44:34;;;;;;;136.50;40.38;;;11.00;94.50;;;;;;5035957;28;20041;-75
2022/11/29 05:47:13;;;;;;;123.60;40.00;;;11.00;94.60;;;;;;5031523;28;20026;-76
2022/11/29 05:50:02;;;;;;;161.88;45.25;;;11.00;94.50;;;;;;5042065;28;20033;-75
2022/11/29 05:52:46;;;;;;;169.98;45.15;;;11.00;94.60;;;;;;5044973;28;20527;-76
2022/11/29 05:55:39;;;;;;;211.45;42.80;;;11.00;94.60;;;;;;5045191;28;20030;-75
2022/11/29 05:58:21;;;;;;;144.55;42.47;;;10.90;94.60;;;;;;5034305;28;20198;-76
2022/11/29 06:00:55;;;;;;;282.30;42.08;;;10.90;94.60;;;;;;5044928;28;20091;-76
2022/11/29 06:03:37;;;;;;;285.65;45.67;;;10.90;94.60;;;;;;5039159;28;20494;-74
2022/11/29 06:06:18;;;;;;;148.45;41.42;;;10.80;94.60;;;;;;5038267;28;20078;-75
2022/11/29 06:08:53;;;;;;;;;;;10.80;94.80;;;;;;5044459;28;20025;-75
2022/11/29 06:11:40;;;;;;;120.88;37.65;;;10.70;94.90;;;;;;5019435;28;19925;-76
2022/11/29 06:14:25;;;;;;;109.57;32.70;;;10.70;95.00;;;;;;5035248;28;20025;-76
2022/11/29 06:17:33;;;;;;;93.15;31.98;;;10.60;95.10;;;;;;5038556;28;20562;-76
2022/11/29 06:20:23;;;;;;;128.55;35.17;;;10.60;95.00;;;;;;5047444;28;20094;-75
2022/11/29 06:23:07;;;;;;;105.70;34.15;;;10.70;94.90;;;;;;5039865;28;20043;-75
2022/11/29 06:25:45;;;;;;;103.35;36.90;;;10.70;94.80;;;;;;5024644;28;20044;-75
2022/11/29 06:29:08;;;;;;;110.75;36.90;;;10.70;94.80;;;;;;5042088;28;20074;-75
2022/11/29 06:31:38;;;;;;;70.63;27.17;;;10.70;94.80;;;;;;4997451;28;20502;-76
2022/11/29 06:34:25;;;;;;;93.82;31.15;;;10.80;94.80;;;;;;5018856;28;20045;-75
2022/11/29 06:37:07;;;;;;;100.55;33.97;;;10.70;94.80;;;;;;5005743;28;20041;-75
2022/11/29 06:39:33;;;;;;;96.68;34.45;;;10.70;94.80;;;;;;5031338;28;20032;-75
2022/11/29 06:41:58;;;;;;;94.80;31.38;;;10.70;94.80;;;;;;5039996;28;20021;-75
2022/11/29 06:44:24;;;;;;;124.88;37.25;;;10.70;94.70;;;;;;5043562;28;20564;-75
2022/11/29 06:47:15;;;;;;;153.20;41.85;;;10.80;94.70;;;;;;5045975;28;20068;-76
2022/11/29 06:49:48;;;;;;;103.32;34.03;;;10.70;94.60;;;;;;5034361;28;20032;-75
2022/11/29 06:52:48;;;;;;;97.82;32.13;;;10.70;94.90;;;;;;5047336;28;20067;-76
2022/11/29 06:55:23;;;;;;;124.13;36.13;;;10.70;94.60;;;;;;5000406;28;20473;-75
2022/11/29 06:58:23;;;;;;;104.25;35.70;;;10.70;94.60;;;;;;5042833;28;20057;-77
2022/11/29 07:01:13;;;;;;;107.35;35.90;;;10.70;94.60;;;;;;5009541;28;20496;-76
2022/11/29 07:03:52;;;;;;;134.98;37.80;;;10.60;94.70;;;;;;5037381;28;20048;-75
2022/11/29 07:06:22;;;;;;;175.63;39.20;;;10.50;94.60;;;;;;5032912;28;20017;-76
2022/11/29 07:08:54;;;;;;;92.78;32.92;;;10.50;94.60;;;;;;5046978;28;20090;-75
2022/11/29 07:11:20;;;;;;;99.90;32.58;;;10.50;94.70;;;;;;5045557;28;20049;-76
2022/11/29 07:13:46;;;;;;;124.28;34.58;;;10.50;94.80;;;;;;5035101;28;20540;-75
2022/11/29 07:16:34;;;;;;;146.18;39.80;;;10.50;94.80;;;;;;5043129;28;20036;-76
2022/11/29 07:19:23;;;;;;;147.30;37.38;;;10.40;94.80;;;;;;5043596;28;20033;-76
2022/11/29 07:22:08;;;;;;;141.23;39.60;;;10.40;94.90;;;;;;5039714;28;20392;-76
2022/11/29 07:25:00;;;;;;;133.13;39.03;;;10.40;95.00;;;;;;5046769;28;20116;-77
2022/11/29 07:27:48;;;;;;;122.78;39.13;;;10.40;95.10;;;;;;5050464;28;20056;-76
2022/11/29 07:30:19;;;;;;;135.00;39.47;;;10.40;95.20;;;;;;5038012;28;20068;-75
2022/11/29 07:33:07;;;;;;;155.43;41.33;;;10.40;95.20;;;;;;5035192;28;20050;-75
2022/11/29 07:36:00;;;;;;;127.40;39.33;;;10.50;95.10;;;;;;5045173;28;20556;-76
2022/11/29 07:38:49;;;;;;;148.57;39.75;;;10.50;95.00;;;;;;5047844;28;20474;-76
2022/11/29 07:41:33;;;;;;;119.60;37.33;;;10.50;95.00;;;;;;5027426;28;20053;-76
2022/11/29 07:44:20;;;;;;;119.03;37.10;;;10.50;95.10;;;;;;5046699;28;20044;-76
2022/11/29 07:46:46;;;;;;;124.72;35.40;;;10.50;95.10;;;;;;5036887;28;20386;-76
2022/11/29 07:49:12;;;;;;;204.40;38.30;;;10.50;95.10;;;;;;5046828;28;20017;-77
2022/11/29 07:51:38;;;;;;;141.88;38.17;;;10.50;95.10;;;;;;5043012;28;20032;-76
2022/11/29 07:54:04;;;;;;;121.13;37.63;;;10.50;95.00;;;;;;5048245;28;20029;-76
2022/11/29 07:56:29;;;;;;;128.88;38.10;;;10.50;95.00;;;;;;5047387;28;20082;-75
2022/11/29 07:58:55;;;;;;;108.05;34.80;;;10.40;95.10;;;;;;5049844;28;20021;-76
2022/11/29 08:01:21;;;;;;;158.82;38.58;;;10.40;95.20;;;;;;5043541;28;20017;-76
2022/11/29 08:03:46;;;;;;;128.85;35.90;;;10.40;95.20;;;;;;5047420;28;20059;-76
2022/11/29 08:06:12;;;;;;;104.95;36.17;;;10.40;95.20;;;;;;5045682;28;20080;-76
2022/11/29 08:08:37;;;;;;;110.53;33.53;;;10.40;95.30;;;;;;5051303;28;20355;-76
2022/11/29 08:11:12;;;;;;;120.45;33.92;;;10.40;95.30;;;;;;5044473;28;20529;-76
2022/11/29 08:13:37;;;;;;;118.55;33.33;;;10.40;95.30;;;;;;5050499;28;20028;-77
2022/11/29 08:16:04;;;;;;;153.18;37.17;;;10.40;95.20;;;;;;5043008;28;20029;-75
2022/11/29 08:18:30;;;;;;;116.18;35.05;;;10.40;95.20;;;;;;5051395;28;20055;-77
2022/11/29 08:20:55;;;;;;;110.25;33.58;;;10.40;95.20;;;;;;5045808;28;20021;-77
2022/11/29 08:23:23;;;;;;;113.20;35.22;;;10.40;95.30;;;;;;5032708;28;20025;-77
2022/11/29 08:25:49;;;;;;;79.80;27.92;;;10.40;95.40;;;;;;5046242;28;20553;-76
2022/11/29 08:28:14;;;;;;;207.65;37.33;;;10.40;95.30;;;;;;5043378;28;20026;-77
2022/11/29 08:30:41;;;;;;;112.72;33.30;;;10.50;95.30;;;;;;5043580;28;20022;-77
2022/11/29 08:33:06;;;;;;;109.70;34.15;;;10.50;95.20;;;;;;5040660;28;20096;-76
2022/11/29 08:35:33;;;;;;;108.05;33.38;;;10.50;95.20;;;;;;5040660;28;20112;-76
2022/11/29 08:37:59;;;;;;;83.18;29.08;;;10.50;95.10;;;;;;5036528;28;20479;-76
2022/11/29 08:40:25;;;;;;;87.20;30.52;;;10.50;95.10;;;;;;5048204;28;20074;-77
2022/11/29 08:42:50;;;;;;;88.00;32.22;;;10.40;95.10;;;;;;5042473;28;20044;-76
2022/11/29 08:45:16;;;;;;;86.93;30.25;;;10.40;95.10;;;;;;5050251;28;20407;-76
2022/11/29 08:47:42;;;;;;;86.22;28.10;;;10.40;95.20;;;;;;5042248;28;20407;-77
2022/11/29 08:50:14;;;;;;;83.90;28.50;;;10.40;95.20;;;;;;5049872;28;20025;-76
2022/11/29 08:55:33;;;;;;;89.15;43.50;;;10.40;95.30;;;;;;5046973;28;20048;-76
2022/11/29 08:58:07;;;;;;;87.88;31.00;;;10.50;95.40;;;;;;5044387;28;20222;-75
2022/11/29 09:00:34;;;;;;;70.43;25.48;;;10.50;95.30;;;;;;5042291;28;20033;-76
2022/11/29 09:05:45;;;;;;;68.97;26.00;;;10.60;95.00;;;;;;5038180;28;20084;-75
2022/11/29 09:08:11;;;;;;;79.93;26.77;;;10.60;95.00;;;;;;5043099;28;20041;-77
2022/11/29 09:10:38;;;;;;;63.42;23.02;;;10.60;94.90;;;;;;5039614;28;21603;-76
2022/11/29 09:13:04;;;;;;;63.00;23.58;;;10.60;94.80;;;;;;5043838;28;20036;-77
2022/11/29 09:15:30;;;;;;;65.65;22.85;;;10.60;94.90;;;;;;5039416;28;20083;-75
2022/11/29 09:17:56;;;;;;;60.22;23.45;;;10.50;94.90;;;;;;5040127;28;20535;-77
2022/11/29 09:20:21;;;;;;;65.88;23.67;;;10.50;94.80;;;;;;5032176;28;20129;-77
2022/11/29 09:22:47;;;;;;;77.88;25.92;;;10.50;94.70;;;;;;5043407;28;20017;-77
2022/11/29 09:25:13;;;;;;;65.70;25.85;;;10.50;94.80;;;;;;5046591;28;20526;-76
2022/11/29 09:27:40;;;;;;;69.72;25.25;;;10.50;94.80;;;;;;5046507;28;20072;-75
2022/11/29 09:30:07;;;;;;;71.80;26.88;;;10.40;94.90;;;;;;5018085;28;20033;-77
2022/11/29 09:32:33;;;;;;;84.22;26.45;;;10.40;95.00;;;;;;5046117;28;20025;-76
2022/11/29 09:34:59;;;;;;;71.35;25.67;;;10.30;95.30;;;;;;5047890;28;20395;-75
2022/11/29 09:37:25;;;;;;;72.85;25.55;;;10.20;95.30;;;;;;5047926;28;20021;-76
2022/11/29 09:39:50;;;;;;;72.50;27.23;;;10.20;95.40;;;;;;5040585;28;20025;-76
2022/11/29 09:42:40;;;;;;;74.40;25.63;;;10.30;95.50;;;;;;5042682;28;20020;-74
2022/11/29 09:45:11;;;;;;;72.43;23.08;;;10.30;95.40;;;;;;5040240;28;20694;-78
2022/11/29 09:48:01;;;;;;;68.03;25.45;;;10.20;95.50;;;;;;5036245;28;20021;-76
2022/11/29 09:50:34;;;;;;;68.00;23.13;;;10.20;95.60;;;;;;5022036;28;20017;-75
2022/11/29 09:53:14;;;;;;;67.07;24.85;;;10.30;95.50;;;;;;5037087;28;20029;-75
2022/11/29 09:55:58;;;;;;;70.78;24.55;;;10.20;95.50;;;;;;5035303;28;20029;-74
2022/11/29 09:58:31;;;;;;;85.57;26.23;;;10.30;95.50;;;;;;5036247;28;20028;-75
2022/11/29 10:01:05;;;;;;;62.10;21.33;;;10.20;95.50;;;;;;5017955;28;20025;-76
2022/11/29 10:03:39;;;;;;;56.75;23.67;;;10.20;95.60;;;;;;5020214;28;20441;-77
2022/11/29 10:06:24;;;;;;;64.25;23.65;;;10.30;95.70;;;;;;5036537;28;20053;-77
2022/11/29 10:09:11;;;;;;;61.10;23.45;;;10.30;95.70;;;;;;5032655;28;20029;-77
2022/11/29 10:11:46;;;;;;;62.22;23.80;;;10.40;95.50;;;;;;5037266;28;20079;-75
2022/11/29 10:14:15;;;;;;;70.45;24.77;;;10.50;95.50;;;;;;5039511;28;20053;-76
2022/11/29 10:16:56;;;;;;;68.40;24.20;;;10.40;95.50;;;;;;5019908;28;20427;-76
2022/11/29 10:19:35;;;;;;;62.33;25.65;;;10.50;95.40;;;;;;5045397;28;20027;-77
2022/11/29 10:22:05;;;;;;;59.97;24.30;;;10.60;95.30;;;;;;5040994;28;20028;-77
2022/11/29 10:24:32;;;;;;;55.30;22.80;;;10.60;95.30;;;;;;5025368;28;20310;-78
2022/11/29 10:26:58;;;;;;;57.80;23.52;;;10.60;95.20;;;;;;5042238;28;20062;-79
2022/11/29 10:29:24;;;;;;;57.78;23.38;;;10.60;95.00;;;;;;5042564;28;20028;-80
2022/11/29 10:31:55;;;;;;;63.53;23.50;;;10.60;95.00;;;;;;5039180;28;20551;-78
2022/11/29 10:34:24;;;;;;;62.35;23.30;;;10.70;94.90;;;;;;5041387;28;20021;-77
2022/11/29 10:37:01;;;;;;;53.92;21.98;;;10.60;94.80;;;;;;5041325;28;20339;-76
2022/11/29 10:40:11;;;;;;;51.75;22.27;;;10.60;94.90;;;;;;5040620;28;20029;-77
2022/11/29 10:42:50;;;;;;;51.78;22.20;;;10.60;95.00;;;;;;5040371;28;20053;-76
2022/11/29 10:45:37;;;;;;;58.35;23.23;;;10.70;95.00;;;;;;5041099;28;20503;-78
2022/11/29 10:48:10;;;;;;;55.88;22.67;;;10.70;95.10;;;;;;5046034;28;20032;-79
2022/11/29 10:50:42;;;;;;;56.92;23.45;;;10.70;95.00;;;;;;5044663;28;20109;-78
2022/11/29 10:53:22;;;;;;;55.90;22.92;;;10.70;95.10;;;;;;5045877;28;20025;-78
2022/11/29 10:56:05;;;;;;;48.42;20.38;;;10.80;95.00;;;;;;5045644;28;20048;-78
2022/11/29 10:58:32;;;;;;;48.28;20.13;;;10.80;94.90;;;;;;5046147;28;20078;-77
2022/11/29 11:01:01;;;;;;;48.55;21.90;;;10.80;94.80;;;;;;5041848;28;20029;-79
2022/11/29 11:03:36;;;;;;;54.15;21.30;;;10.80;94.70;;;;;;5047418;28;20032;-79
2022/11/29 11:06:42;;;;;;;57.70;22.35;;;10.80;94.70;;;;;;5045523;28;20036;-75
2022/11/29 11:09:35;;;;;;;52.78;23.17;;;10.80;94.80;;;;;;5019292;28;20036;-74
2022/11/29 11:12:15;;;;;;;54.85;23.25;;;10.80;94.70;;;;;;5039915;28;20071;-75
2022/11/29 11:14:43;;;;;;;35.20;15.15;;;10.80;94.70;;;;;;5047747;28;20119;-75
2022/11/29 11:17:31;;;;;;;51.88;22.67;;;10.90;94.60;;;;;;5040999;28;20048;-75
2022/11/29 11:20:19;;;;;;;49.83;20.45;;;10.90;94.70;;;;;;5040106;28;20045;-74
2022/11/29 11:22:56;;;;;;;41.22;18.80;;;10.90;94.70;;;;;;5044243;28;20659;-75
2022/11/29 11:25:29;;;;;;;52.78;22.20;;;10.90;94.40;;;;;;5039339;28;20029;-74
2022/11/29 11:27:57;;;;;;;52.08;23.35;;;10.90;94.60;;;;;;5042936;28;20017;-75
2022/11/29 11:30:26;;;;;;;49.78;22.88;;;10.90;94.60;;;;;;5035524;28;20394;-76
2022/11/29 11:33:13;;;;;;;46.65;20.55;;;10.90;94.50;;;;;;5046292;28;20403;-76
2022/11/29 11:35:39;;;;;;;55.00;21.80;;;10.80;94.40;;;;;;5036533;28;20167;-75
2022/11/29 11:38:14;;;;;;;54.00;21.88;;;10.80;94.60;;;;;;5048654;28;20025;-75
2022/11/29 11:40:40;;;;;;;50.65;24.10;;;10.70;94.70;;;;;;5038419;28;20103;-75
2022/11/29 11:43:19;;;;;;;40.95;18.35;;;10.60;95.00;;;;;;5040423;28;20069;-77
2022/11/29 11:45:52;;;;;;;41.60;17.92;;;10.70;94.90;;;;;;5038963;28;20486;-76
2022/11/29 11:48:18;;;;;;;57.33;30.85;;;10.80;94.90;;;;;;5038259;28;20021;-75
2022/11/29 11:50:50;;;;;;;51.90;22.40;;;10.80;95.00;;;;;;5038694;28;20111;-76
2022/11/29 11:53:25;;;;;;;54.58;22.17;;;10.80;94.90;;;;;;5043838;28;20103;-75
2022/11/29 11:56:00;;;;;;;50.53;22.48;;;10.90;94.90;;;;;;5048296;28;20112;-75
2022/11/29 11:58:32;;;;;;;60.42;25.60;;;10.90;94.90;;;;;;5046892;28;20162;-74
2022/11/29 12:01:15;;;;;;;51.17;21.35;;;11.00;94.80;;;;;;5032821;28;20315;-75
2022/11/29 12:03:49;;;;;;;47.88;19.33;;;11.00;95.20;;;;;;5028546;28;20025;-75
2022/11/29 12:06:33;;;;;;;45.78;20.80;;;11.10;94.90;;;;;;5031729;28;20071;-75
2022/11/29 12:09:26;;;;;;;49.85;22.00;;;11.10;94.70;;;;;;5042091;28;20082;-75
2022/11/29 12:12:22;;;;;;;51.80;21.92;;;11.10;94.90;;;;;;5039792;28;20674;-76
2022/11/29 12:14:56;;;;;;;47.92;25.13;;;11.10;94.70;;;;;;5040834;28;20527;-75
2022/11/29 12:17:22;;;;;;;50.58;23.42;;;11.00;94.60;;;;;;5050655;28;20025;-76
2022/11/29 12:20:19;;;;;;;51.35;21.83;;;11.10;94.70;;;;;;5034223;28;20021;-76
2022/11/29 12:23:06;;;;;;;48.13;21.65;;;11.10;94.60;;;;;;5030471;28;20059;-75
2022/11/29 12:25:39;;;;;;;56.28;23.02;;;11.20;94.60;;;;;;5044677;28;20040;-76
2022/11/29 12:28:10;;;;;;;59.97;22.88;;;11.30;94.60;;;;;;5031578;28;20968;-76
2022/11/29 12:30:46;;;;;;;56.53;24.42;;;11.30;94.60;;;;;;5049854;28;20071;-75
2022/11/29 12:33:20;;;;;;;48.45;22.15;;;11.30;94.60;;;;;;5036938;28;20084;-76
2022/11/29 12:36:03;;;;;;;51.88;22.63;;;11.40;94.40;;;;;;5034653;28;20029;-75
2022/11/29 12:39:10;;;;;;;55.75;23.75;;;11.40;94.30;;;;;;5031442;28;20025;-76
2022/11/29 12:41:55;;;;;;;53.33;24.40;;;11.50;94.30;;;;;;5036327;28;20127;-74
2022/11/29 12:44:53;;;;;;;56.90;24.00;;;11.40;94.20;;;;;;5039896;28;20042;-75
2022/11/29 12:47:23;;;;;;;56.10;24.40;;;11.50;94.20;;;;;;5020664;28;20037;-76
2022/11/29 12:49:48;;;;;;;55.42;24.23;;;11.40;94.10;;;;;;5046940;28;20078;-75
2022/11/29 12:52:26;;;;;;;56.03;25.60;;;11.30;94.00;;;;;;5029504;28;20442;-75
2022/11/29 12:55:03;;;;;;;54.90;25.55;;;11.30;94.00;;;;;;5041558;28;20605;-74
2022/11/29 12:58:00;;;;;;;49.60;23.70;;;11.30;94.00;;;;;;5043534;28;20041;-76
2022/11/29 13:00:31;;;;;;;52.92;23.90;;;11.40;93.90;;;;;;5039206;28;20795;-75
2022/11/29 13:03:23;;;;;;;56.88;24.67;;;11.50;93.90;;;;;;5038749;28;20479;-75
2022/11/29 13:05:51;;;;;;;60.10;25.17;;;11.50;93.80;;;;;;5037271;28;20033;-75
2022/11/29 13:08:39;;;;;;;46.65;22.13;;;11.50;93.70;;;;;;5040829;28;20018;-74
2022/11/29 13:11:10;;;;;;;62.13;25.70;;;11.50;93.70;;;;;;5044211;28;20484;-75
2022/11/29 13:13:42;;;;;;;56.53;26.15;;;11.50;93.60;;;;;;5040249;28;20419;-75
2022/11/29 13:16:28;;;;;;;50.35;22.30;;;11.50;93.70;;;;;;5032063;28;20028;-75
2022/11/29 13:19:06;;;;;;;54.58;23.70;;;11.50;93.70;;;;;;5035781;28;20019;-74